sensor_id;sensor_type;location;lat;lon;timestamp;P1;durP1;ratioP1;P2;durP2;ratioP2
26806;SDS011;14380;49.910;6.792;2023-02-01T00:01:47;30.67;;;18.48;;
26806;SDS011;14380;49.910;6.792;2023-02-01T00:04:14;31.52;;;20.08;;
26806;SDS011;14380;49.910;6.792;2023-02-01T00:06:41;29.42;;;16.88;;
26806;SDS011;14380;49.910;6.792;2023-02-01T00:09:07;23.92;;;17.35;;
26806;SDS011;14380;49.910;6.792;2023-02-01T00:11:35;26.15;;;16.88;;
26806;SDS011;14380;49.910;6.792;2023-02-01T00:14:02;25.98;;;16.60;;
26806;SDS011;14380;49.910;6.792;2023-02-01T00:16:29;26.17;;;16.33;;
26806;SDS011;14380;49.910;6.792;2023-02-01T00:18:57;28.65;;;18.17;;
26806;SDS011;14380;49.910;6.792;2023-02-01T00:21:25;34.05;;;20.05;;
26806;SDS011;14380;49.910;6.792;2023-02-01T00:23:51;28.88;;;16.60;;
26806;SDS011;14380;49.910;6.792;2023-02-01T00:26:18;27.67;;;18.02;;
26806;SDS011;14380;49.910;6.792;2023-02-01T00:28:49;27.55;;;17.70;;
26806;SDS011;14380;49.910;6.792;2023-02-01T00:31:15;30.13;;;18.08;;
26806;SDS011;14380;49.910;6.792;2023-02-01T00:33:42;28.17;;;16.80;;
26806;SDS011;14380;49.910;6.792;2023-02-01T00:36:08;25.90;;;16.23;;
26806;SDS011;14380;49.910;6.792;2023-02-01T00:38:37;22.67;;;15.15;;
26806;SDS011;14380;49.910;6.792;2023-02-01T00:41:04;28.50;;;15.52;;
26806;SDS011;14380;49.910;6.792;2023-02-01T00:43:32;23.45;;;14.60;;
26806;SDS011;14380;49.910;6.792;2023-02-01T00:46:01;26.23;;;15.32;;
26806;SDS011;14380;49.910;6.792;2023-02-01T00:48:28;27.42;;;15.30;;
26806;SDS011;14380;49.910;6.792;2023-02-01T00:50:58;31.40;;;14.90;;
26806;SDS011;14380;49.910;6.792;2023-02-01T00:53:25;23.42;;;14.07;;
26806;SDS011;14380;49.910;6.792;2023-02-01T00:55:52;22.33;;;14.57;;
26806;SDS011;14380;49.910;6.792;2023-02-01T00:58:18;19.88;;;13.77;;
26806;SDS011;14380;49.910;6.792;2023-02-01T01:00:45;21.13;;;14.32;;
26806;SDS011;14380;49.910;6.792;2023-02-01T01:03:15;24.67;;;14.02;;
26806;SDS011;14380;49.910;6.792;2023-02-01T01:05:44;27.38;;;13.95;;
26806;SDS011;14380;49.910;6.792;2023-02-01T01:08:11;21.52;;;14.43;;
26806;SDS011;14380;49.910;6.792;2023-02-01T01:10:38;23.67;;;14.40;;
26806;SDS011;14380;49.910;6.792;2023-02-01T01:13:05;22.20;;;14.30;;
26806;SDS011;14380;49.910;6.792;2023-02-01T01:15:35;22.65;;;14.05;;
26806;SDS011;14380;49.910;6.792;2023-02-01T01:18:02;25.58;;;13.77;;
26806;SDS011;14380;49.910;6.792;2023-02-01T01:20:30;22.40;;;13.60;;
26806;SDS011;14380;49.910;6.792;2023-02-01T01:22:57;23.55;;;13.32;;
26806;SDS011;14380;49.910;6.792;2023-02-01T01:25:23;22.42;;;13.65;;
26806;SDS011;14380;49.910;6.792;2023-02-01T01:27:50;24.88;;;15.00;;
26806;SDS011;14380;49.910;6.792;2023-02-01T01:30:17;28.88;;;13.68;;
26806;SDS011;14380;49.910;6.792;2023-02-01T01:32:43;26.73;;;14.23;;
26806;SDS011;14380;49.910;6.792;2023-02-01T01:35:10;25.92;;;15.13;;
26806;SDS011;14380;49.910;6.792;2023-02-01T01:37:38;23.95;;;15.18;;
26806;SDS011;14380;49.910;6.792;2023-02-01T01:40:05;24.52;;;15.30;;
26806;SDS011;14380;49.910;6.792;2023-02-01T01:42:36;24.52;;;13.55;;
26806;SDS011;14380;49.910;6.792;2023-02-01T01:45:04;24.83;;;13.93;;
26806;SDS011;14380;49.910;6.792;2023-02-01T01:47:33;24.08;;;13.65;;
26806;SDS011;14380;49.910;6.792;2023-02-01T01:50:12;22.17;;;13.68;;
26806;SDS011;14380;49.910;6.792;2023-02-01T01:52:44;24.98;;;14.27;;
26806;SDS011;14380;49.910;6.792;2023-02-01T01:55:15;27.50;;;13.73;;
26806;SDS011;14380;49.910;6.792;2023-02-01T01:57:46;25.00;;;14.20;;
26806;SDS011;14380;49.910;6.792;2023-02-01T02:00:16;23.27;;;13.43;;
26806;SDS011;14380;49.910;6.792;2023-02-01T02:02:46;19.80;;;13.23;;
26806;SDS011;14380;49.910;6.792;2023-02-01T02:05:13;23.08;;;13.65;;
26806;SDS011;14380;49.910;6.792;2023-02-01T02:07:45;25.10;;;14.05;;
26806;SDS011;14380;49.910;6.792;2023-02-01T02:10:14;26.17;;;14.48;;
26806;SDS011;14380;49.910;6.792;2023-02-01T02:12:42;26.67;;;14.13;;
26806;SDS011;14380;49.910;6.792;2023-02-01T02:15:12;21.67;;;12.35;;
26806;SDS011;14380;49.910;6.792;2023-02-01T02:17:41;19.70;;;11.95;;
26806;SDS011;14380;49.910;6.792;2023-02-01T02:20:22;15.02;;;10.15;;
26806;SDS011;14380;49.910;6.792;2023-02-01T02:26:20;11.48;;;8.77;;
26806;SDS011;14380;49.910;6.792;2023-02-01T02:32:16;12.02;;;7.22;;
26806;SDS011;14380;49.910;6.792;2023-02-01T02:34:54;10.77;;;5.90;;
26806;SDS011;14380;49.910;6.792;2023-02-01T02:37:26;8.70;;;5.35;;
26806;SDS011;14380;49.910;6.792;2023-02-01T02:40:04;8.10;;;4.90;;
26806;SDS011;14380;49.910;6.792;2023-02-01T02:42:38;6.97;;;4.45;;
26806;SDS011;14380;49.910;6.792;2023-02-01T02:45:27;8.73;;;4.80;;
26806;SDS011;14380;49.910;6.792;2023-02-01T02:48:17;7.43;;;4.32;;
26806;SDS011;14380;49.910;6.792;2023-02-01T02:50:51;6.68;;;4.20;;
26806;SDS011;14380;49.910;6.792;2023-02-01T02:53:41;5.43;;;4.30;;
26806;SDS011;14380;49.910;6.792;2023-02-01T02:56:32;6.65;;;4.50;;
26806;SDS011;14380;49.910;6.792;2023-02-01T02:59:17;6.43;;;4.35;;
26806;SDS011;14380;49.910;6.792;2023-02-01T03:02:06;8.00;;;4.45;;
26806;SDS011;14380;49.910;6.792;2023-02-01T03:04:52;7.20;;;3.90;;
26806;SDS011;14380;49.910;6.792;2023-02-01T03:10:23;6.63;;;4.57;;
26806;SDS011;14380;49.910;6.792;2023-02-01T03:12:59;5.75;;;4.47;;
26806;SDS011;14380;49.910;6.792;2023-02-01T03:15:49;6.55;;;3.63;;
26806;SDS011;14380;49.910;6.792;2023-02-01T03:18:21;4.38;;;3.17;;
26806;SDS011;14380;49.910;6.792;2023-02-01T03:20:55;3.95;;;2.22;;
26806;SDS011;14380;49.910;6.792;2023-02-01T03:23:28;7.25;;;2.40;;
26806;SDS011;14380;49.910;6.792;2023-02-01T03:25:56;4.43;;;2.42;;
26806;SDS011;14380;49.910;6.792;2023-02-01T03:28:27;4.40;;;2.60;;
26806;SDS011;14380;49.910;6.792;2023-02-01T03:30:56;8.15;;;3.08;;
26806;SDS011;14380;49.910;6.792;2023-02-01T03:33:24;4.75;;;2.47;;
26806;SDS011;14380;49.910;6.792;2023-02-01T03:35:54;5.32;;;2.60;;
26806;SDS011;14380;49.910;6.792;2023-02-01T03:38:28;3.40;;;2.05;;
26806;SDS011;14380;49.910;6.792;2023-02-01T03:41:01;5.97;;;2.03;;
26806;SDS011;14380;49.910;6.792;2023-02-01T03:46:05;4.65;;;1.92;;
26806;SDS011;14380;49.910;6.792;2023-02-01T03:48:35;4.93;;;1.90;;
26806;SDS011;14380;49.910;6.792;2023-02-01T03:51:03;7.10;;;2.28;;
26806;SDS011;14380;49.910;6.792;2023-02-01T03:53:33;9.13;;;2.55;;
26806;SDS011;14380;49.910;6.792;2023-02-01T03:56:03;4.72;;;3.08;;
26806;SDS011;14380;49.910;6.792;2023-02-01T03:58:30;3.58;;;2.63;;
26806;SDS011;14380;49.910;6.792;2023-02-01T04:00:57;5.53;;;3.08;;
26806;SDS011;14380;49.910;6.792;2023-02-01T04:03:25;4.28;;;2.60;;
26806;SDS011;14380;49.910;6.792;2023-02-01T04:05:53;8.18;;;3.00;;
26806;SDS011;14380;49.910;6.792;2023-02-01T04:08:20;8.45;;;2.92;;
26806;SDS011;14380;49.910;6.792;2023-02-01T04:10:48;4.47;;;2.72;;
26806;SDS011;14380;49.910;6.792;2023-02-01T04:13:15;8.43;;;2.72;;
26806;SDS011;14380;49.910;6.792;2023-02-01T04:15:42;8.70;;;3.20;;
26806;SDS011;14380;49.910;6.792;2023-02-01T04:18:08;8.55;;;3.70;;
26806;SDS011;14380;49.910;6.792;2023-02-01T04:20:35;7.47;;;3.85;;
26806;SDS011;14380;49.910;6.792;2023-02-01T04:23:01;5.80;;;3.80;;
26806;SDS011;14380;49.910;6.792;2023-02-01T04:25:28;8.25;;;3.83;;
26806;SDS011;14380;49.910;6.792;2023-02-01T04:27:56;6.03;;;3.50;;
26806;SDS011;14380;49.910;6.792;2023-02-01T04:30:22;8.55;;;4.22;;
26806;SDS011;14380;49.910;6.792;2023-02-01T04:32:49;9.57;;;4.65;;
26806;SDS011;14380;49.910;6.792;2023-02-01T04:35:16;14.07;;;6.35;;
26806;SDS011;14380;49.910;6.792;2023-02-01T04:37:42;14.88;;;7.85;;
26806;SDS011;14380;49.910;6.792;2023-02-01T04:40:09;17.55;;;8.02;;
26806;SDS011;14380;49.910;6.792;2023-02-01T04:42:36;22.25;;;10.95;;
26806;SDS011;14380;49.910;6.792;2023-02-01T04:45:05;31.48;;;14.80;;
26806;SDS011;14380;49.910;6.792;2023-02-01T04:47:33;26.80;;;11.02;;
26806;SDS011;14380;49.910;6.792;2023-02-01T04:50:00;26.17;;;9.85;;
26806;SDS011;14380;49.910;6.792;2023-02-01T04:52:27;37.13;;;13.65;;
26806;SDS011;14380;49.910;6.792;2023-02-01T04:54:53;28.33;;;13.43;;
26806;SDS011;14380;49.910;6.792;2023-02-01T04:57:22;25.77;;;8.75;;
26806;SDS011;14380;49.910;6.792;2023-02-01T04:59:49;27.85;;;8.05;;
26806;SDS011;14380;49.910;6.792;2023-02-01T05:02:16;26.25;;;8.13;;
26806;SDS011;14380;49.910;6.792;2023-02-01T05:04:43;20.50;;;7.68;;
26806;SDS011;14380;49.910;6.792;2023-02-01T05:07:09;23.95;;;8.15;;
26806;SDS011;14380;49.910;6.792;2023-02-01T05:09:36;23.48;;;9.60;;
26806;SDS011;14380;49.910;6.792;2023-02-01T05:12:03;27.40;;;8.73;;
26806;SDS011;14380;49.910;6.792;2023-02-01T05:14:47;25.60;;;8.70;;
26806;SDS011;14380;49.910;6.792;2023-02-01T05:17:14;32.20;;;8.43;;
26806;SDS011;14380;49.910;6.792;2023-02-01T05:19:42;28.45;;;8.10;;
26806;SDS011;14380;49.910;6.792;2023-02-01T05:22:08;18.60;;;6.90;;
26806;SDS011;14380;49.910;6.792;2023-02-01T05:24:35;28.35;;;7.28;;
26806;SDS011;14380;49.910;6.792;2023-02-01T05:27:01;29.27;;;7.30;;
26806;SDS011;14380;49.910;6.792;2023-02-01T05:29:28;24.92;;;6.95;;
26806;SDS011;14380;49.910;6.792;2023-02-01T05:31:55;24.85;;;7.47;;
26806;SDS011;14380;49.910;6.792;2023-02-01T05:34:21;25.58;;;6.78;;
26806;SDS011;14380;49.910;6.792;2023-02-01T05:36:49;27.58;;;6.63;;
26806;SDS011;14380;49.910;6.792;2023-02-01T05:39:15;27.13;;;5.65;;
26806;SDS011;14380;49.910;6.792;2023-02-01T05:41:42;28.70;;;6.55;;
26806;SDS011;14380;49.910;6.792;2023-02-01T05:44:09;23.00;;;6.38;;
26806;SDS011;14380;49.910;6.792;2023-02-01T05:46:36;39.22;;;7.15;;
26806;SDS011;14380;49.910;6.792;2023-02-01T05:49:03;24.17;;;6.32;;
26806;SDS011;14380;49.910;6.792;2023-02-01T05:51:29;18.02;;;5.28;;
26806;SDS011;14380;49.910;6.792;2023-02-01T05:53:57;28.60;;;5.38;;
26806;SDS011;14380;49.910;6.792;2023-02-01T05:56:24;22.23;;;4.90;;
26806;SDS011;14380;49.910;6.792;2023-02-01T05:58:51;21.38;;;5.80;;
26806;SDS011;14380;49.910;6.792;2023-02-01T06:01:18;20.08;;;5.05;;
26806;SDS011;14380;49.910;6.792;2023-02-01T06:03:44;23.75;;;5.38;;
26806;SDS011;14380;49.910;6.792;2023-02-01T06:06:11;26.00;;;5.03;;
26806;SDS011;14380;49.910;6.792;2023-02-01T06:08:37;27.92;;;5.18;;
26806;SDS011;14380;49.910;6.792;2023-02-01T06:11:06;19.42;;;4.35;;
26806;SDS011;14380;49.910;6.792;2023-02-01T06:13:33;22.60;;;4.45;;
26806;SDS011;14380;49.910;6.792;2023-02-01T06:16:02;27.05;;;5.05;;
26806;SDS011;14380;49.910;6.792;2023-02-01T06:18:30;31.92;;;4.78;;
26806;SDS011;14380;49.910;6.792;2023-02-01T06:20:58;23.80;;;4.18;;
26806;SDS011;14380;49.910;6.792;2023-02-01T06:23:25;25.38;;;4.47;;
26806;SDS011;14380;49.910;6.792;2023-02-01T06:25:53;25.05;;;5.78;;
26806;SDS011;14380;49.910;6.792;2023-02-01T06:28:26;64.68;;;27.27;;
26806;SDS011;14380;49.910;6.792;2023-02-01T06:30:52;49.80;;;15.90;;
26806;SDS011;14380;49.910;6.792;2023-02-01T06:33:19;36.72;;;10.82;;
26806;SDS011;14380;49.910;6.792;2023-02-01T06:35:45;30.67;;;9.40;;
26806;SDS011;14380;49.910;6.792;2023-02-01T06:38:12;31.98;;;4.65;;
26806;SDS011;14380;49.910;6.792;2023-02-01T06:40:40;26.50;;;4.80;;
26806;SDS011;14380;49.910;6.792;2023-02-01T06:43:07;24.42;;;5.20;;
26806;SDS011;14380;49.910;6.792;2023-02-01T06:45:35;30.27;;;6.88;;
26806;SDS011;14380;49.910;6.792;2023-02-01T06:48:01;35.05;;;6.53;;
26806;SDS011;14380;49.910;6.792;2023-02-01T06:50:28;22.08;;;5.22;;
26806;SDS011;14380;49.910;6.792;2023-02-01T06:52:54;29.83;;;4.63;;
26806;SDS011;14380;49.910;6.792;2023-02-01T06:55:21;21.05;;;3.88;;
26806;SDS011;14380;49.910;6.792;2023-02-01T06:57:48;22.60;;;4.63;;
26806;SDS011;14380;49.910;6.792;2023-02-01T07:00:18;30.48;;;5.15;;
26806;SDS011;14380;49.910;6.792;2023-02-01T07:02:47;28.67;;;5.75;;
26806;SDS011;14380;49.910;6.792;2023-02-01T07:05:13;19.20;;;4.75;;
26806;SDS011;14380;49.910;6.792;2023-02-01T07:07:40;29.17;;;4.95;;
26806;SDS011;14380;49.910;6.792;2023-02-01T07:10:10;27.92;;;5.15;;
26806;SDS011;14380;49.910;6.792;2023-02-01T07:12:36;22.45;;;4.75;;
26806;SDS011;14380;49.910;6.792;2023-02-01T07:15:03;23.92;;;4.40;;
26806;SDS011;14380;49.910;6.792;2023-02-01T07:17:30;24.10;;;5.10;;
26806;SDS011;14380;49.910;6.792;2023-02-01T07:19:58;28.95;;;5.35;;
26806;SDS011;14380;49.910;6.792;2023-02-01T07:22:26;24.05;;;5.05;;
26806;SDS011;14380;49.910;6.792;2023-02-01T07:24:53;26.15;;;4.18;;
26806;SDS011;14380;49.910;6.792;2023-02-01T07:27:19;19.85;;;3.83;;
26806;SDS011;14380;49.910;6.792;2023-02-01T07:29:49;22.42;;;4.85;;
26806;SDS011;14380;49.910;6.792;2023-02-01T07:32:16;22.23;;;4.57;;
26806;SDS011;14380;49.910;6.792;2023-02-01T07:34:43;27.40;;;5.25;;
26806;SDS011;14380;49.910;6.792;2023-02-01T07:37:11;23.75;;;4.03;;
26806;SDS011;14380;49.910;6.792;2023-02-01T07:39:37;31.90;;;5.43;;
26806;SDS011;14380;49.910;6.792;2023-02-01T07:42:04;25.35;;;5.15;;
26806;SDS011;14380;49.910;6.792;2023-02-01T07:44:31;23.83;;;4.63;;
26806;SDS011;14380;49.910;6.792;2023-02-01T07:46:57;19.63;;;4.05;;
26806;SDS011;14380;49.910;6.792;2023-02-01T07:49:24;43.33;;;5.30;;
26806;SDS011;14380;49.910;6.792;2023-02-01T07:51:50;20.98;;;4.68;;
26806;SDS011;14380;49.910;6.792;2023-02-01T07:54:18;29.83;;;8.50;;
26806;SDS011;14380;49.910;6.792;2023-02-01T07:56:45;29.73;;;4.30;;
26806;SDS011;14380;49.910;6.792;2023-02-01T07:59:11;41.60;;;4.78;;
26806;SDS011;14380;49.910;6.792;2023-02-01T08:01:38;19.70;;;3.60;;
26806;SDS011;14380;49.910;6.792;2023-02-01T08:04:03;32.42;;;4.55;;
26806;SDS011;14380;49.910;6.792;2023-02-01T08:06:30;27.90;;;3.95;;
26806;SDS011;14380;49.910;6.792;2023-02-01T08:08:59;23.83;;;4.38;;
26806;SDS011;14380;49.910;6.792;2023-02-01T08:11:27;24.05;;;4.30;;
26806;SDS011;14380;49.910;6.792;2023-02-01T08:13:54;25.02;;;3.35;;
26806;SDS011;14380;49.910;6.792;2023-02-01T08:16:20;19.55;;;3.63;;
26806;SDS011;14380;49.910;6.792;2023-02-01T08:18:48;27.33;;;3.92;;
26806;SDS011;14380;49.910;6.792;2023-02-01T08:21:15;22.83;;;4.97;;
26806;SDS011;14380;49.910;6.792;2023-02-01T08:23:43;28.02;;;4.25;;
26806;SDS011;14380;49.910;6.792;2023-02-01T08:26:11;16.83;;;4.32;;
26806;SDS011;14380;49.910;6.792;2023-02-01T08:28:41;24.92;;;5.25;;
26806;SDS011;14380;49.910;6.792;2023-02-01T08:31:09;34.33;;;4.97;;
26806;SDS011;14380;49.910;6.792;2023-02-01T08:33:39;24.10;;;5.15;;
26806;SDS011;14380;49.910;6.792;2023-02-01T08:36:08;25.02;;;4.80;;
26806;SDS011;14380;49.910;6.792;2023-02-01T08:38:36;32.67;;;5.88;;
26806;SDS011;14380;49.910;6.792;2023-02-01T08:41:04;24.75;;;4.55;;
26806;SDS011;14380;49.910;6.792;2023-02-01T08:43:31;32.85;;;6.90;;
26806;SDS011;14380;49.910;6.792;2023-02-01T08:45:59;23.15;;;5.70;;
26806;SDS011;14380;49.910;6.792;2023-02-01T08:48:26;29.65;;;5.55;;
26806;SDS011;14380;49.910;6.792;2023-02-01T08:50:52;32.25;;;5.07;;
26806;SDS011;14380;49.910;6.792;2023-02-01T08:53:19;25.73;;;5.38;;
26806;SDS011;14380;49.910;6.792;2023-02-01T08:55:45;22.80;;;5.00;;
26806;SDS011;14380;49.910;6.792;2023-02-01T08:58:14;21.10;;;4.32;;
26806;SDS011;14380;49.910;6.792;2023-02-01T09:00:42;29.40;;;4.28;;
26806;SDS011;14380;49.910;6.792;2023-02-01T09:03:10;28.02;;;4.45;;
26806;SDS011;14380;49.910;6.792;2023-02-01T09:05:37;25.50;;;4.43;;
26806;SDS011;14380;49.910;6.792;2023-02-01T09:08:04;28.25;;;5.85;;
26806;SDS011;14380;49.910;6.792;2023-02-01T09:10:31;24.25;;;4.47;;
26806;SDS011;14380;49.910;6.792;2023-02-01T09:12:58;30.60;;;5.22;;
26806;SDS011;14380;49.910;6.792;2023-02-01T09:15:25;31.88;;;4.22;;
26806;SDS011;14380;49.910;6.792;2023-02-01T09:17:55;26.05;;;3.70;;
26806;SDS011;14380;49.910;6.792;2023-02-01T09:20:22;27.15;;;4.70;;
26806;SDS011;14380;49.910;6.792;2023-02-01T09:22:49;24.38;;;4.50;;
26806;SDS011;14380;49.910;6.792;2023-02-01T09:25:16;26.85;;;4.25;;
26806;SDS011;14380;49.910;6.792;2023-02-01T09:27:43;29.08;;;4.10;;
26806;SDS011;14380;49.910;6.792;2023-02-01T09:30:10;28.27;;;4.60;;
26806;SDS011;14380;49.910;6.792;2023-02-01T09:32:37;23.27;;;3.78;;
26806;SDS011;14380;49.910;6.792;2023-02-01T09:35:03;20.90;;;4.57;;
26806;SDS011;14380;49.910;6.792;2023-02-01T09:37:31;29.45;;;3.97;;
26806;SDS011;14380;49.910;6.792;2023-02-01T09:39:58;28.20;;;4.05;;
26806;SDS011;14380;49.910;6.792;2023-02-01T09:42:30;30.27;;;4.43;;
26806;SDS011;14380;49.910;6.792;2023-02-01T09:45:14;28.52;;;4.93;;
26806;SDS011;14380;49.910;6.792;2023-02-01T09:47:47;23.60;;;4.63;;
26806;SDS011;14380;49.910;6.792;2023-02-01T09:50:20;30.67;;;3.72;;
26806;SDS011;14380;49.910;6.792;2023-02-01T09:52:55;25.50;;;4.93;;
26806;SDS011;14380;49.910;6.792;2023-02-01T09:55:29;22.90;;;3.15;;
26806;SDS011;14380;49.910;6.792;2023-02-01T09:58:02;18.15;;;3.35;;
26806;SDS011;14380;49.910;6.792;2023-02-01T10:00:34;30.83;;;3.88;;
26806;SDS011;14380;49.910;6.792;2023-02-01T10:03:01;33.42;;;4.93;;
26806;SDS011;14380;49.910;6.792;2023-02-01T10:05:48;27.65;;;4.25;;
26806;SDS011;14380;49.910;6.792;2023-02-01T10:08:29;30.83;;;4.38;;
26806;SDS011;14380;49.910;6.792;2023-02-01T10:11:06;26.73;;;3.83;;
26806;SDS011;14380;49.910;6.792;2023-02-01T10:13:48;22.90;;;4.55;;
26806;SDS011;14380;49.910;6.792;2023-02-01T10:16:25;24.48;;;4.57;;
26806;SDS011;14380;49.910;6.792;2023-02-01T10:21:54;28.95;;;4.25;;
26806;SDS011;14380;49.910;6.792;2023-02-01T10:24:31;24.65;;;3.92;;
26806;SDS011;14380;49.910;6.792;2023-02-01T10:27:12;22.58;;;3.15;;
26806;SDS011;14380;49.910;6.792;2023-02-01T10:29:51;32.20;;;4.32;;
26806;SDS011;14380;49.910;6.792;2023-02-01T10:32:21;27.27;;;3.70;;
26806;SDS011;14380;49.910;6.792;2023-02-01T10:34:50;21.65;;;3.58;;
26806;SDS011;14380;49.910;6.792;2023-02-01T10:37:26;23.10;;;3.78;;
26806;SDS011;14380;49.910;6.792;2023-02-01T10:39:56;24.00;;;4.45;;
26806;SDS011;14380;49.910;6.792;2023-02-01T10:42:25;24.70;;;3.63;;
26806;SDS011;14380;49.910;6.792;2023-02-01T10:44:54;21.33;;;3.72;;
26806;SDS011;14380;49.910;6.792;2023-02-01T10:47:25;28.77;;;3.80;;
26806;SDS011;14380;49.910;6.792;2023-02-01T10:49:54;22.30;;;3.75;;
26806;SDS011;14380;49.910;6.792;2023-02-01T10:57:58;22.25;;;3.50;;
26806;SDS011;14380;49.910;6.792;2023-02-01T11:00:26;21.05;;;4.07;;
26806;SDS011;14380;49.910;6.792;2023-02-01T11:02:54;24.80;;;3.65;;
26806;SDS011;14380;49.910;6.792;2023-02-01T11:05:21;15.07;;;3.45;;
26806;SDS011;14380;49.910;6.792;2023-02-01T11:07:50;26.05;;;3.55;;
26806;SDS011;14380;49.910;6.792;2023-02-01T11:10:35;18.33;;;3.15;;
26806;SDS011;14380;49.910;6.792;2023-02-01T11:13:03;20.30;;;3.67;;
26806;SDS011;14380;49.910;6.792;2023-02-01T11:15:31;26.27;;;4.43;;
26806;SDS011;14380;49.910;6.792;2023-02-01T11:17:57;34.72;;;6.32;;
26806;SDS011;14380;49.910;6.792;2023-02-01T11:20:41;19.13;;;3.35;;
26806;SDS011;14380;49.910;6.792;2023-02-01T11:23:13;30.75;;;4.55;;
26806;SDS011;14380;49.910;6.792;2023-02-01T11:25:48;28.40;;;4.30;;
26806;SDS011;14380;49.910;6.792;2023-02-01T11:28:16;24.23;;;4.50;;
26806;SDS011;14380;49.910;6.792;2023-02-01T11:30:45;38.70;;;5.10;;
26806;SDS011;14380;49.910;6.792;2023-02-01T11:33:15;17.60;;;3.38;;
26806;SDS011;14380;49.910;6.792;2023-02-01T11:35:44;22.15;;;4.75;;
26806;SDS011;14380;49.910;6.792;2023-02-01T11:38:20;19.83;;;3.80;;
26806;SDS011;14380;49.910;6.792;2023-02-01T11:40:52;21.15;;;3.30;;
26806;SDS011;14380;49.910;6.792;2023-02-01T11:43:22;22.80;;;4.75;;
26806;SDS011;14380;49.910;6.792;2023-02-01T11:45:54;20.60;;;3.70;;
26806;SDS011;14380;49.910;6.792;2023-02-01T11:48:22;25.38;;;4.68;;
26806;SDS011;14380;49.910;6.792;2023-02-01T11:50:51;17.55;;;2.78;;
26806;SDS011;14380;49.910;6.792;2023-02-01T11:53:33;27.38;;;5.05;;
26806;SDS011;14380;49.910;6.792;2023-02-01T11:56:14;19.08;;;4.00;;
26806;SDS011;14380;49.910;6.792;2023-02-01T11:59:00;18.83;;;3.58;;
26806;SDS011;14380;49.910;6.792;2023-02-01T12:01:51;19.08;;;3.08;;
26806;SDS011;14380;49.910;6.792;2023-02-01T12:04:48;25.02;;;3.85;;
26806;SDS011;14380;49.910;6.792;2023-02-01T12:07:33;29.92;;;4.60;;
26806;SDS011;14380;49.910;6.792;2023-02-01T12:10:16;14.68;;;3.25;;
26806;SDS011;14380;49.910;6.792;2023-02-01T12:12:53;26.05;;;3.85;;
26806;SDS011;14380;49.910;6.792;2023-02-01T12:18:02;16.33;;;3.10;;
26806;SDS011;14380;49.910;6.792;2023-02-01T12:20:51;16.00;;;3.22;;
26806;SDS011;14380;49.910;6.792;2023-02-01T12:23:32;19.33;;;3.33;;
26806;SDS011;14380;49.910;6.792;2023-02-01T12:26:20;23.80;;;4.05;;
26806;SDS011;14380;49.910;6.792;2023-02-01T12:29:07;30.70;;;7.03;;
26806;SDS011;14380;49.910;6.792;2023-02-01T12:34:46;31.67;;;9.02;;
26806;SDS011;14380;49.910;6.792;2023-02-01T12:37:46;37.17;;;11.88;;
26806;SDS011;14380;49.910;6.792;2023-02-01T12:40:29;36.83;;;7.60;;
26806;SDS011;14380;49.910;6.792;2023-02-01T12:43:09;39.55;;;10.43;;
26806;SDS011;14380;49.910;6.792;2023-02-01T12:45:42;16.70;;;3.67;;
26806;SDS011;14380;49.910;6.792;2023-02-01T12:48:18;22.33;;;3.65;;
26806;SDS011;14380;49.910;6.792;2023-02-01T12:50:53;28.33;;;6.28;;
26806;SDS011;14380;49.910;6.792;2023-02-01T12:53:25;22.75;;;3.88;;
26806;SDS011;14380;49.910;6.792;2023-02-01T12:55:57;25.23;;;3.75;;
26806;SDS011;14380;49.910;6.792;2023-02-01T12:58:29;18.75;;;3.20;;
26806;SDS011;14380;49.910;6.792;2023-02-01T13:01:04;25.10;;;4.03;;
26806;SDS011;14380;49.910;6.792;2023-02-01T13:03:34;24.33;;;6.07;;
26806;SDS011;14380;49.910;6.792;2023-02-01T13:06:06;26.02;;;5.47;;
26806;SDS011;14380;49.910;6.792;2023-02-01T13:08:38;31.50;;;6.43;;
26806;SDS011;14380;49.910;6.792;2023-02-01T13:11:10;19.83;;;2.45;;
26806;SDS011;14380;49.910;6.792;2023-02-01T13:13:44;18.33;;;4.72;;
26806;SDS011;14380;49.910;6.792;2023-02-01T13:16:21;13.65;;;3.25;;
26806;SDS011;14380;49.910;6.792;2023-02-01T13:18:54;20.52;;;3.83;;
26806;SDS011;14380;49.910;6.792;2023-02-01T13:21:37;23.13;;;3.67;;
26806;SDS011;14380;49.910;6.792;2023-02-01T13:24:24;20.02;;;3.13;;
26806;SDS011;14380;49.910;6.792;2023-02-01T13:26:57;19.88;;;3.60;;
26806;SDS011;14380;49.910;6.792;2023-02-01T13:29:24;13.60;;;3.00;;
26806;SDS011;14380;49.910;6.792;2023-02-01T13:32:10;16.00;;;2.85;;
26806;SDS011;14380;49.910;6.792;2023-02-01T13:37:39;15.05;;;2.67;;
26806;SDS011;14380;49.910;6.792;2023-02-01T13:40:25;17.05;;;2.75;;
26806;SDS011;14380;49.910;6.792;2023-02-01T13:45:47;17.75;;;2.90;;
26806;SDS011;14380;49.910;6.792;2023-02-01T13:48:19;17.35;;;2.75;;
26806;SDS011;14380;49.910;6.792;2023-02-01T13:50:50;14.70;;;3.85;;
26806;SDS011;14380;49.910;6.792;2023-02-01T13:53:18;14.95;;;2.25;;
26806;SDS011;14380;49.910;6.792;2023-02-01T13:55:54;15.52;;;2.70;;
26806;SDS011;14380;49.910;6.792;2023-02-01T13:58:29;19.95;;;2.95;;
26806;SDS011;14380;49.910;6.792;2023-02-01T14:07:16;18.05;;;2.65;;
26806;SDS011;14380;49.910;6.792;2023-02-01T14:09:44;22.95;;;3.97;;
26806;SDS011;14380;49.910;6.792;2023-02-01T14:15:18;19.85;;;3.17;;
26806;SDS011;14380;49.910;6.792;2023-02-01T14:17:49;16.48;;;2.80;;
26806;SDS011;14380;49.910;6.792;2023-02-01T14:23:26;17.83;;;3.20;;
26806;SDS011;14380;49.910;6.792;2023-02-01T14:26:01;11.35;;;2.45;;
26806;SDS011;14380;49.910;6.792;2023-02-01T14:28:48;19.83;;;3.03;;
26806;SDS011;14380;49.910;6.792;2023-02-01T14:34:11;19.50;;;3.83;;
26806;SDS011;14380;49.910;6.792;2023-02-01T14:36:43;16.85;;;2.33;;
26806;SDS011;14380;49.910;6.792;2023-02-01T14:39:26;15.70;;;2.35;;
26806;SDS011;14380;49.910;6.792;2023-02-01T14:41:56;15.35;;;2.45;;
26806;SDS011;14380;49.910;6.792;2023-02-01T14:44:27;24.30;;;3.50;;
26806;SDS011;14380;49.910;6.792;2023-02-01T14:49:59;17.35;;;2.33;;
26806;SDS011;14380;49.910;6.792;2023-02-01T14:52:32;12.30;;;2.28;;
26806;SDS011;14380;49.910;6.792;2023-02-01T14:55:04;15.40;;;2.70;;
26806;SDS011;14380;49.910;6.792;2023-02-01T14:57:35;12.13;;;2.28;;
26806;SDS011;14380;49.910;6.792;2023-02-01T15:00:06;18.35;;;2.92;;
26806;SDS011;14380;49.910;6.792;2023-02-01T15:02:40;11.68;;;2.00;;
26806;SDS011;14380;49.910;6.792;2023-02-01T15:05:26;12.70;;;2.25;;
26806;SDS011;14380;49.910;6.792;2023-02-01T15:08:00;16.88;;;2.08;;
26806;SDS011;14380;49.910;6.792;2023-02-01T15:10:42;22.15;;;3.03;;
26806;SDS011;14380;49.910;6.792;2023-02-01T15:13:21;13.20;;;2.60;;
26806;SDS011;14380;49.910;6.792;2023-02-01T15:16:07;17.83;;;2.67;;
26806;SDS011;14380;49.910;6.792;2023-02-01T15:18:37;14.65;;;2.95;;
26806;SDS011;14380;49.910;6.792;2023-02-01T15:21:04;15.75;;;2.78;;
26806;SDS011;14380;49.910;6.792;2023-02-01T15:23:32;11.52;;;2.45;;
26806;SDS011;14380;49.910;6.792;2023-02-01T15:26:00;11.00;;;1.98;;
26806;SDS011;14380;49.910;6.792;2023-02-01T15:28:27;11.00;;;2.60;;
26806;SDS011;14380;49.910;6.792;2023-02-01T15:30:54;10.23;;;1.90;;
26806;SDS011;14380;49.910;6.792;2023-02-01T15:33:23;14.55;;;2.97;;
26806;SDS011;14380;49.910;6.792;2023-02-01T15:35:51;14.00;;;2.30;;
26806;SDS011;14380;49.910;6.792;2023-02-01T15:41:04;15.05;;;3.15;;
26806;SDS011;14380;49.910;6.792;2023-02-01T15:43:35;9.93;;;2.25;;
26806;SDS011;14380;49.910;6.792;2023-02-01T15:46:07;12.55;;;2.33;;
26806;SDS011;14380;49.910;6.792;2023-02-01T15:48:37;13.23;;;2.75;;